sensor_id;sensor_type;location;lat;lon;timestamp;pressure;altitude;pressure_sealevel;temperature;humidity
76819;BME280;65772;51.096;17.006;2024-01-15T00:01:16;98345.45;;;4.51;62.15
76819;BME280;65772;51.096;17.006;2024-01-15T00:03:47;98340.24;;;4.52;61.87
76819;BME280;65772;51.096;17.006;2024-01-15T00:06:17;98341.27;;;4.53;61.78
76819;BME280;65772;51.096;17.006;2024-01-15T00:08:48;98336.05;;;4.53;61.38
76819;BME280;65772;51.096;17.006;2024-01-15T00:11:19;98330.97;;;4.53;61.25
76819;BME280;65772;51.096;17.006;2024-01-15T00:13:49;98321.69;;;4.54;61.14
76819;BME280;65772;51.096;17.006;2024-01-15T00:16:20;98313.79;;;4.55;61.01
76819;BME280;65772;51.096;17.006;2024-01-15T00:18:50;98306.18;;;4.56;61.01
76819;BME280;65772;51.096;17.006;2024-01-15T00:21:21;98303.83;;;4.57;60.55
76819;BME280;65772;51.096;17.006;2024-01-15T00:23:52;98299.29;;;4.58;60.39
76819;BME280;65772;51.096;17.006;2024-01-15T00:26:23;98294.39;;;4.58;60.18
76819;BME280;65772;51.096;17.006;2024-01-15T00:28:53;98291.65;;;4.56;60.10
76819;BME280;65772;51.096;17.006;2024-01-15T00:31:24;98285.20;;;4.53;59.90
76819;BME280;65772;51.096;17.006;2024-01-15T00:33:54;98278.57;;;4.52;59.94
76819;BME280;65772;51.096;17.006;2024-01-15T00:36:25;98268.45;;;4.52;59.80
76819;BME280;65772;51.096;17.006;2024-01-15T00:38:56;98267.48;;;4.54;59.78
76819;BME280;65772;51.096;17.006;2024-01-15T00:41:26;98265.11;;;4.54;59.36
76819;BME280;65772;51.096;17.006;2024-01-15T00:43:58;98258.69;;;4.54;59.23
76819;BME280;65772;51.096;17.006;2024-01-15T00:46:28;98253.44;;;4.53;59.19
76819;BME280;65772;51.096;17.006;2024-01-15T00:48:59;98250.38;;;4.53;59.31
76819;BME280;65772;51.096;17.006;2024-01-15T00:51:29;98245.61;;;4.51;59.09
76819;BME280;65772;51.096;17.006;2024-01-15T00:54:00;98243.72;;;4.50;58.75
76819;BME280;65772;51.096;17.006;2024-01-15T00:56:31;98234.03;;;4.46;58.73
76819;BME280;65772;51.096;17.006;2024-01-15T00:59:02;98233.16;;;4.44;58.73
76819;BME280;65772;51.096;17.006;2024-01-15T01:01:32;98233.80;;;4.43;58.05
76819;BME280;65772;51.096;17.006;2024-01-15T01:04:03;98235.41;;;4.39;58.23
76819;BME280;65772;51.096;17.006;2024-01-15T01:06:34;98231.67;;;4.38;58.07
76819;BME280;65772;51.096;17.006;2024-01-15T01:09:05;98227.64;;;4.38;58.16
76819;BME280;65772;51.096;17.006;2024-01-15T01:11:35;98230.51;;;4.38;58.21
76819;BME280;65772;51.096;17.006;2024-01-15T01:14:06;98228.14;;;4.38;58.44
76819;BME280;65772;51.096;17.006;2024-01-15T01:16:36;98225.45;;;4.39;58.16
76819;BME280;65772;51.096;17.006;2024-01-15T01:19:09;98222.98;;;4.35;57.89
76819;BME280;65772;51.096;17.006;2024-01-15T01:21:39;98219.27;;;4.35;57.96
76819;BME280;65772;51.096;17.006;2024-01-15T01:24:10;98213.53;;;4.34;58.22
76819;BME280;65772;51.096;17.006;2024-01-15T01:26:40;98217.69;;;4.30;57.90
76819;BME280;65772;51.096;17.006;2024-01-15T01:29:11;98214.25;;;4.28;58.15
76819;BME280;65772;51.096;17.006;2024-01-15T01:31:45;98212.54;;;4.27;58.01
76819;BME280;65772;51.096;17.006;2024-01-15T01:34:17;98211.35;;;4.27;57.96
76819;BME280;65772;51.096;17.006;2024-01-15T01:36:47;98212.70;;;4.27;57.73
76819;BME280;65772;51.096;17.006;2024-01-15T01:39:18;98212.71;;;4.27;58.07
76819;BME280;65772;51.096;17.006;2024-01-15T01:41:49;98206.64;;;4.27;58.09
76819;BME280;65772;51.096;17.006;2024-01-15T01:44:19;98203.30;;;4.29;58.09
76819;BME280;65772;51.096;17.006;2024-01-15T01:46:50;98200.90;;;4.27;57.93
76819;BME280;65772;51.096;17.006;2024-01-15T01:49:20;98187.02;;;4.26;57.77
76819;BME280;65772;51.096;17.006;2024-01-15T01:51:52;98183.84;;;4.28;57.80
76819;BME280;65772;51.096;17.006;2024-01-15T01:54:22;98184.21;;;4.29;57.65
76819;BME280;65772;51.096;17.006;2024-01-15T01:56:53;98181.19;;;4.30;57.89
76819;BME280;65772;51.096;17.006;2024-01-15T01:59:25;98186.27;;;4.30;57.53
76819;BME280;65772;51.096;17.006;2024-01-15T02:01:56;98186.05;;;4.27;57.56
76819;BME280;65772;51.096;17.006;2024-01-15T02:04:28;98185.86;;;4.27;57.77
76819;BME280;65772;51.096;17.006;2024-01-15T02:06:58;98191.60;;;4.27;58.10
76819;BME280;65772;51.096;17.006;2024-01-15T02:09:29;98194.23;;;4.23;58.74
76819;BME280;65772;51.096;17.006;2024-01-15T02:12:01;98197.35;;;4.19;58.99
76819;BME280;65772;51.096;17.006;2024-01-15T02:14:32;98192.37;;;4.15;59.37
76819;BME280;65772;51.096;17.006;2024-01-15T02:17:03;98190.02;;;4.15;59.63
76819;BME280;65772;51.096;17.006;2024-01-15T02:19:33;98187.06;;;4.11;60.24
76819;BME280;65772;51.096;17.006;2024-01-15T02:22:04;98182.20;;;4.03;60.82
76819;BME280;65772;51.096;17.006;2024-01-15T02:24:35;98179.92;;;3.99;60.85
76819;BME280;65772;51.096;17.006;2024-01-15T02:27:06;98172.27;;;3.97;61.07
76819;BME280;65772;51.096;17.006;2024-01-15T02:29:37;98171.25;;;3.96;61.00
76819;BME280;65772;51.096;17.006;2024-01-15T02:32:10;98166.70;;;3.97;61.10
76819;BME280;65772;51.096;17.006;2024-01-15T02:34:38;98166.10;;;4.00;60.95
76819;BME280;65772;51.096;17.006;2024-01-15T02:37:09;98159.40;;;4.03;61.21
76819;BME280;65772;51.096;17.006;2024-01-15T02:39:40;98147.35;;;4.08;61.02
76819;BME280;65772;51.096;17.006;2024-01-15T02:42:10;98146.90;;;4.11;60.66
76819;BME280;65772;51.096;17.006;2024-01-15T02:44:41;98146.59;;;4.12;60.32
76819;BME280;65772;51.096;17.006;2024-01-15T02:47:11;98145.92;;;4.12;59.97
76819;BME280;65772;51.096;17.006;2024-01-15T02:49:42;98143.05;;;4.14;59.94
76819;BME280;65772;51.096;17.006;2024-01-15T02:52:12;98142.04;;;4.13;60.45
76819;BME280;65772;51.096;17.006;2024-01-15T02:54:43;98148.09;;;4.11;60.55
76819;BME280;65772;51.096;17.006;2024-01-15T02:57:13;98135.23;;;4.10;60.91
76819;BME280;65772;51.096;17.006;2024-01-15T02:59:44;98132.31;;;4.08;60.94
76819;BME280;65772;51.096;17.006;2024-01-15T03:02:15;98126.55;;;4.07;60.87
76819;BME280;65772;51.096;17.006;2024-01-15T03:04:45;98121.26;;;4.04;60.87
76819;BME280;65772;51.096;17.006;2024-01-15T03:07:17;98117.70;;;4.03;60.80
76819;BME280;65772;51.096;17.006;2024-01-15T03:09:48;98108.25;;;4.03;60.52
76819;BME280;65772;51.096;17.006;2024-01-15T03:12:19;98106.04;;;4.01;60.27
76819;BME280;65772;51.096;17.006;2024-01-15T03:14:49;98116.80;;;4.00;60.36
76819;BME280;65772;51.096;17.006;2024-01-15T03:17:20;98111.56;;;3.99;60.13
76819;BME280;65772;51.096;17.006;2024-01-15T03:19:50;98114.25;;;3.99;60.00
76819;BME280;65772;51.096;17.006;2024-01-15T03:22:21;98100.36;;;3.96;59.94
76819;BME280;65772;51.096;17.006;2024-01-15T03:24:52;98107.16;;;3.99;59.96
76819;BME280;65772;51.096;17.006;2024-01-15T03:27:23;98098.91;;;4.00;59.96
76819;BME280;65772;51.096;17.006;2024-01-15T03:29:55;98094.20;;;4.00;59.94
76819;BME280;65772;51.096;17.006;2024-01-15T03:32:25;98092.48;;;4.00;60.03
76819;BME280;65772;51.096;17.006;2024-01-15T03:34:56;98099.23;;;3.99;60.01
76819;BME280;65772;51.096;17.006;2024-01-15T03:37:27;98098.89;;;3.99;59.98
76819;BME280;65772;51.096;17.006;2024-01-15T03:39:57;98106.67;;;4.00;59.58
76819;BME280;65772;51.096;17.006;2024-01-15T03:42:28;98102.96;;;4.00;59.42
76819;BME280;65772;51.096;17.006;2024-01-15T03:44:58;98096.56;;;4.00;59.45
76819;BME280;65772;51.096;17.006;2024-01-15T03:47:29;98091.35;;;4.01;59.66
76819;BME280;65772;51.096;17.006;2024-01-15T03:49:59;98092.05;;;4.04;59.40
76819;BME280;65772;51.096;17.006;2024-01-15T03:52:30;98093.65;;;4.08;59.35
76819;BME280;65772;51.096;17.006;2024-01-15T03:55:00;98089.63;;;4.09;59.00
76819;BME280;65772;51.096;17.006;2024-01-15T03:57:31;98084.23;;;4.09;58.84
76819;BME280;65772;51.096;17.006;2024-01-15T04:00:02;98077.17;;;4.11;58.94
76819;BME280;65772;51.096;17.006;2024-01-15T04:02:33;98071.80;;;4.12;59.12
76819;BME280;65772;51.096;17.006;2024-01-15T04:05:04;98070.63;;;4.14;58.57
76819;BME280;65772;51.096;17.006;2024-01-15T04:07:35;98069.95;;;4.13;58.50
76819;BME280;65772;51.096;17.006;2024-01-15T04:10:06;98072.48;;;4.12;58.30
76819;BME280;65772;51.096;17.006;2024-01-15T04:12:37;98069.10;;;4.14;58.13
76819;BME280;65772;51.096;17.006;2024-01-15T04:15:08;98069.11;;;4.14;58.34
76819;BME280;65772;51.096;17.006;2024-01-15T04:17:38;98060.85;;;4.15;58.11
76819;BME280;65772;51.096;17.006;2024-01-15T04:20:10;98054.10;;;4.15;58.29
76819;BME280;65772;51.096;17.006;2024-01-15T04:22:41;98047.17;;;4.15;58.08
76819;BME280;65772;51.096;17.006;2024-01-15T04:25:11;98046.53;;;4.17;57.96
76819;BME280;65772;51.096;17.006;2024-01-15T04:27:42;98046.94;;;4.20;58.05
76819;BME280;65772;51.096;17.006;2024-01-15T04:30:14;98051.73;;;4.23;57.94
76819;BME280;65772;51.096;17.006;2024-01-15T04:32:44;98050.38;;;4.24;57.99
76819;BME280;65772;51.096;17.006;2024-01-15T04:35:15;98051.58;;;4.25;58.07
76819;BME280;65772;51.096;17.006;2024-01-15T04:37:45;98041.82;;;4.27;58.16
76819;BME280;65772;51.096;17.006;2024-01-15T04:40:16;98031.68;;;4.27;57.82
76819;BME280;65772;51.096;17.006;2024-01-15T04:42:47;98025.94;;;4.27;58.15
76819;BME280;65772;51.096;17.006;2024-01-15T04:45:17;98020.70;;;4.27;57.87
76819;BME280;65772;51.096;17.006;2024-01-15T04:47:49;98018.98;;;4.25;58.01
76819;BME280;65772;51.096;17.006;2024-01-15T04:50:19;98020.33;;;4.24;57.90
76819;BME280;65772;51.096;17.006;2024-01-15T04:52:50;98018.79;;;4.22;57.73
76819;BME280;65772;51.096;17.006;2024-01-15T04:55:21;98020.13;;;4.21;57.75
76819;BME280;65772;51.096;17.006;2024-01-15T04:57:51;98025.34;;;4.20;57.92
76819;BME280;65772;51.096;17.006;2024-01-15T05:00:22;98024.68;;;4.21;57.78
76819;BME280;65772;51.096;17.006;2024-01-15T05:02:53;98028.08;;;4.23;57.79
76819;BME280;65772;51.096;17.006;2024-01-15T05:05:23;98027.13;;;4.27;57.63
76819;BME280;65772;51.096;17.006;2024-01-15T05:07:55;98021.40;;;4.28;57.85
76819;BME280;65772;51.096;17.006;2024-01-15T05:10:25;98023.41;;;4.27;57.54
76819;BME280;65772;51.096;17.006;2024-01-15T05:12:56;98023.91;;;4.26;57.62
76819;BME280;65772;51.096;17.006;2024-01-15T05:15:27;98024.75;;;4.26;57.69
76819;BME280;65772;51.096;17.006;2024-01-15T05:17:57;98026.05;;;4.23;57.35
76819;BME280;65772;51.096;17.006;2024-01-15T05:20:28;98031.36;;;4.18;57.40
76819;BME280;65772;51.096;17.006;2024-01-15T05:22:59;98030.63;;;4.15;57.41
76819;BME280;65772;51.096;17.006;2024-01-15T05:25:29;98032.84;;;4.16;57.64
76819;BME280;65772;51.096;17.006;2024-01-15T05:28:00;98041.84;;;4.18;57.89
76819;BME280;65772;51.096;17.006;2024-01-15T05:30:30;98043.33;;;4.17;58.52
76819;BME280;65772;51.096;17.006;2024-01-15T05:33:01;98045.31;;;4.14;59.26
76819;BME280;65772;51.096;17.006;2024-01-15T05:35:32;98042.94;;;4.13;60.01
76819;BME280;65772;51.096;17.006;2024-01-15T05:38:03;98041.05;;;4.11;60.20
76819;BME280;65772;51.096;17.006;2024-01-15T05:40:33;98044.04;;;4.09;60.68
76819;BME280;65772;51.096;17.006;2024-01-15T05:43:05;98044.48;;;4.06;61.24
76819;BME280;65772;51.096;17.006;2024-01-15T05:45:37;98042.60;;;4.04;61.57
76819;BME280;65772;51.096;17.006;2024-01-15T05:48:08;98044.27;;;4.02;62.13
76819;BME280;65772;51.096;17.006;2024-01-15T05:50:39;98044.63;;;4.04;62.33
76819;BME280;65772;51.096;17.006;2024-01-15T05:53:10;98050.75;;;4.07;62.40
76819;BME280;65772;51.096;17.006;2024-01-15T05:55:40;98056.58;;;4.11;62.49
76819;BME280;65772;51.096;17.006;2024-01-15T05:58:11;98056.94;;;4.13;62.17
76819;BME280;65772;51.096;17.006;2024-01-15T06:00:41;98053.73;;;4.12;62.26
76819;BME280;65772;51.096;17.006;2024-01-15T06:03:12;98045.68;;;4.16;62.22
76819;BME280;65772;51.096;17.006;2024-01-15T06:05:43;98048.92;;;4.18;62.34
76819;BME280;65772;51.096;17.006;2024-01-15T06:08:13;98056.63;;;4.15;62.19
76819;BME280;65772;51.096;17.006;2024-01-15T06:10:44;98057.95;;;4.12;62.40
76819;BME280;65772;51.096;17.006;2024-01-15T06:13:15;98050.66;;;4.11;62.32
76819;BME280;65772;51.096;17.006;2024-01-15T06:15:45;98053.34;;;4.10;62.46
76819;BME280;65772;51.096;17.006;2024-01-15T06:18:16;98049.14;;;4.10;62.56
76819;BME280;65772;51.096;17.006;2024-01-15T06:20:47;98054.61;;;4.05;62.21
76819;BME280;65772;51.096;17.006;2024-01-15T06:23:18;98050.97;;;3.99;62.29
76819;BME280;65772;51.096;17.006;2024-01-15T06:25:49;98040.05;;;3.94;62.60
76819;BME280;65772;51.096;17.006;2024-01-15T06:28:20;98048.50;;;3.94;62.55
76819;BME280;65772;51.096;17.006;2024-01-15T06:30:51;98055.91;;;3.93;62.46
76819;BME280;65772;51.096;17.006;2024-01-15T06:33:21;98059.77;;;3.93;62.45
76819;BME280;65772;51.096;17.006;2024-01-15T06:35:52;98060.96;;;3.92;62.83
76819;BME280;65772;51.096;17.006;2024-01-15T06:38:22;98062.47;;;3.93;62.64
76819;BME280;65772;51.096;17.006;2024-01-15T06:40:54;98060.13;;;3.93;62.36
76819;BME280;65772;51.096;17.006;2024-01-15T06:43:24;98066.57;;;3.95;62.52
76819;BME280;65772;51.096;17.006;2024-01-15T06:45:55;98068.39;;;3.93;62.37
76819;BME280;65772;51.096;17.006;2024-01-15T06:48:26;98077.55;;;3.96;62.12
76819;BME280;65772;51.096;17.006;2024-01-15T06:50:57;98080.95;;;3.96;62.07
76819;BME280;65772;51.096;17.006;2024-01-15T06:53:27;98080.58;;;3.95;61.92
76819;BME280;65772;51.096;17.006;2024-01-15T06:55:58;98085.13;;;3.94;61.68
76819;BME280;65772;51.096;17.006;2024-01-15T06:58:29;98085.80;;;3.95;62.01
76819;BME280;65772;51.096;17.006;2024-01-15T07:01:01;98087.48;;;3.94;61.66
76819;BME280;65772;51.096;17.006;2024-01-15T07:03:31;98094.07;;;3.95;61.53
76819;BME280;65772;51.096;17.006;2024-01-15T07:06:03;98093.36;;;3.93;61.07
76819;BME280;65772;51.096;17.006;2024-01-15T07:08:33;98099.27;;;3.92;60.84
76819;BME280;65772;51.096;17.006;2024-01-15T07:11:06;98105.17;;;3.92;60.66
76819;BME280;65772;51.096;17.006;2024-01-15T07:13:38;98100.11;;;3.93;60.29
76819;BME280;65772;51.096;17.006;2024-01-15T07:16:09;98103.73;;;3.96;60.07
76819;BME280;65772;51.096;17.006;2024-01-15T07:18:40;98102.98;;;4.00;59.83
76819;BME280;65772;51.096;17.006;2024-01-15T07:21:11;98104.86;;;4.02;59.33
76819;BME280;65772;51.096;17.006;2024-01-15T07:23:41;98111.95;;;4.03;59.32
76819;BME280;65772;51.096;17.006;2024-01-15T07:26:12;98114.98;;;4.02;58.92
76819;BME280;65772;51.096;17.006;2024-01-15T07:28:43;98113.28;;;4.01;58.53
76819;BME280;65772;51.096;17.006;2024-01-15T07:31:13;98120.38;;;4.01;58.90
76819;BME280;65772;51.096;17.006;2024-01-15T07:33:45;98125.77;;;4.01;58.38
76819;BME280;65772;51.096;17.006;2024-01-15T07:36:16;98127.95;;;4.00;58.42
76819;BME280;65772;51.096;17.006;2024-01-15T07:38:47;98121.14;;;3.97;58.22
76819;BME280;65772;51.096;17.006;2024-01-15T07:41:18;98129.27;;;3.99;58.09
76819;BME280;65772;51.096;17.006;2024-01-15T07:43:48;98119.85;;;4.00;58.03
76819;BME280;65772;51.096;17.006;2024-01-15T07:46:19;98117.45;;;3.99;57.81
76819;BME280;65772;51.096;17.006;2024-01-15T07:48:49;98112.74;;;4.00;57.72
76819;BME280;65772;51.096;17.006;2024-01-15T07:51:25;98109.05;;;4.00;57.59
76819;BME280;65772;51.096;17.006;2024-01-15T07:53:56;98112.46;;;4.03;57.50
76819;BME280;65772;51.096;17.006;2024-01-15T07:56:27;98105.88;;;4.03;57.26
76819;BME280;65772;51.096;17.006;2024-01-15T07:58:57;98096.34;;;4.08;56.93
76819;BME280;65772;51.096;17.006;2024-01-15T08:01:28;98080.38;;;4.11;56.72
76819;BME280;65772;51.096;17.006;2024-01-15T08:03:59;98070.61;;;4.12;56.26
76819;BME280;65772;51.096;17.006;2024-01-15T08:06:29;98079.91;;;4.14;56.21
76819;BME280;65772;51.096;17.006;2024-01-15T08:09:01;98081.77;;;4.15;55.52
76819;BME280;65772;51.096;17.006;2024-01-15T08:11:33;98075.23;;;4.16;55.45
76819;BME280;65772;51.096;17.006;2024-01-15T08:14:03;98077.81;;;4.19;55.30
76819;BME280;65772;51.096;17.006;2024-01-15T08:16:34;98086.45;;;4.20;54.70
76819;BME280;65772;51.096;17.006;2024-01-15T08:19:05;98084.23;;;4.19;54.76
76819;BME280;65772;51.096;17.006;2024-01-15T08:21:35;98079.84;;;4.18;54.36
76819;BME280;65772;51.096;17.006;2024-01-15T08:24:06;98078.27;;;4.16;54.17
76819;BME280;65772;51.096;17.006;2024-01-15T08:26:37;98071.54;;;4.17;54.30
76819;BME280;65772;51.096;17.006;2024-01-15T08:29:08;98062.06;;;4.17;54.27
76819;BME280;65772;51.096;17.006;2024-01-15T08:31:38;98073.72;;;4.17;53.98
76819;BME280;65772;51.096;17.006;2024-01-15T08:34:09;98071.88;;;4.17;53.91
76819;BME280;65772;51.096;17.006;2024-01-15T08:36:40;98077.29;;;4.18;54.01
76819;BME280;65772;51.096;17.006;2024-01-15T08:39:11;98082.70;;;4.18;53.66
76819;BME280;65772;51.096;17.006;2024-01-15T08:41:42;98082.18;;;4.18;53.64
76819;BME280;65772;51.096;17.006;2024-01-15T08:44:12;98090.80;;;4.18;53.47
76819;BME280;65772;51.096;17.006;2024-01-15T08:46:43;98090.65;;;4.19;53.28
76819;BME280;65772;51.096;17.006;2024-01-15T08:49:13;98091.17;;;4.20;53.16
76819;BME280;65772;51.096;17.006;2024-01-15T08:51:44;98093.38;;;4.20;53.20
76819;BME280;65772;51.096;17.006;2024-01-15T08:54:15;98096.60;;;4.21;53.08
76819;BME280;65772;51.096;17.006;2024-01-15T08:56:47;98098.81;;;4.22;52.77
76819;BME280;65772;51.096;17.006;2024-01-15T08:59:18;98095.08;;;4.20;52.94
76819;BME280;65772;51.096;17.006;2024-01-15T09:01:54;98095.61;;;4.22;53.05
76819;BME280;65772;51.096;17.006;2024-01-15T09:04:26;98098.38;;;4.26;53.11
76819;BME280;65772;51.096;17.006;2024-01-15T09:06:57;98091.98;;;4.27;52.50
76819;BME280;65772;51.096;17.006;2024-01-15T09:09:27;98086.95;;;4.29;52.55
76819;BME280;65772;51.096;17.006;2024-01-15T09:11:58;98089.36;;;4.32;52.97
76819;BME280;65772;51.096;17.006;2024-01-15T09:14:28;98086.85;;;4.32;52.36
76819;BME280;65772;51.096;17.006;2024-01-15T09:17:06;98090.59;;;4.35;52.35
76819;BME280;65772;51.096;17.006;2024-01-15T09:19:37;98088.91;;;4.35;52.23
76819;BME280;65772;51.096;17.006;2024-01-15T09:22:09;98085.23;;;4.37;52.15
76819;BME280;65772;51.096;17.006;2024-01-15T09:24:41;98087.80;;;4.39;52.35
76819;BME280;65772;51.096;17.006;2024-01-15T09:27:12;98097.72;;;4.36;51.82
76819;BME280;65772;51.096;17.006;2024-01-15T09:29:43;98082.77;;;4.31;51.95
76819;BME280;65772;51.096;17.006;2024-01-15T09:32:13;98084.26;;;4.30;52.27
76819;BME280;65772;51.096;17.006;2024-01-15T09:34:45;98087.12;;;4.29;52.15
76819;BME280;65772;51.096;17.006;2024-01-15T09:37:16;98083.42;;;4.30;52.20
76819;BME280;65772;51.096;17.006;2024-01-15T09:40:08;98086.19;;;4.34;52.59
76819;BME280;65772;51.096;17.006;2024-01-15T09:42:39;98083.40;;;4.39;52.47
76819;BME280;65772;51.096;17.006;2024-01-15T09:45:10;98085.48;;;4.41;52.22
76819;BME280;65772;51.096;17.006;2024-01-15T09:47:42;98079.91;;;4.41;52.46
76819;BME280;65772;51.096;17.006;2024-01-15T09:50:15;98087.85;;;4.42;52.25
76819;BME280;65772;51.096;17.006;2024-01-15T09:52:46;98085.77;;;4.39;51.81
76819;BME280;65772;51.096;17.006;2024-01-15T09:55:18;98088.73;;;4.36;51.86
76819;BME280;65772;51.096;17.006;2024-01-15T09:57:49;98088.39;;;4.35;51.95
76819;BME280;65772;51.096;17.006;2024-01-15T10:00:21;98086.44;;;4.39;52.02
76819;BME280;65772;51.096;17.006;2024-01-15T10:02:52;98085.34;;;4.43;52.20
76819;BME280;65772;51.096;17.006;2024-01-15T10:05:23;98080.98;;;4.45;51.90
76819;BME280;65772;51.096;17.006;2024-01-15T10:07:54;98083.21;;;4.48;52.26
76819;BME280;65772;51.096;17.006;2024-01-15T10:10:26;98080.17;;;4.48;51.79
76819;BME280;65772;51.096;17.006;2024-01-15T10:12:57;98085.72;;;4.47;51.80
76819;BME280;65772;51.096;17.006;2024-01-15T10:15:28;98083.83;;;4.44;51.61
76819;BME280;65772;51.096;17.006;2024-01-15T10:17:59;98075.66;;;4.40;51.32
76819;BME280;65772;51.096;17.006;2024-01-15T10:20:30;98079.23;;;4.41;51.95
76819;BME280;65772;51.096;17.006;2024-01-15T10:23:02;98081.14;;;4.44;51.94
76819;BME280;65772;51.096;17.006;2024-01-15T10:25:33;98072.20;;;4.46;51.84
76819;BME280;65772;51.096;17.006;2024-01-15T10:28:06;98069.54;;;4.49;51.73
76819;BME280;65772;51.096;17.006;2024-01-15T10:30:37;98072.75;;;4.49;51.59
76819;BME280;65772;51.096;17.006;2024-01-15T10:33:08;98086.40;;;4.48;51.49
76819;BME280;65772;51.096;17.006;2024-01-15T10:35:39;98080.80;;;4.45;51.29
76819;BME280;65772;51.096;17.006;2024-01-15T10:38:11;98073.58;;;4.48;51.54
76819;BME280;65772;51.096;17.006;2024-01-15T10:40:41;98073.96;;;4.50;51.64
76819;BME280;65772;51.096;17.006;2024-01-15T10:43:12;98078.41;;;4.53;51.15
76819;BME280;65772;51.096;17.006;2024-01-15T10:45:42;98075.19;;;4.52;51.09
76819;BME280;65772;51.096;17.006;2024-01-15T10:48:13;98063.04;;;4.53;51.43
76819;BME280;65772;51.096;17.006;2024-01-15T10:50:45;98076.23;;;4.55;51.40
76819;BME280;65772;51.096;17.006;2024-01-15T10:53:18;98064.73;;;4.54;50.88
76819;BME280;65772;51.096;17.006;2024-01-15T10:55:49;98063.93;;;4.57;51.10
76819;BME280;65772;51.096;17.006;2024-01-15T10:58:21;98065.67;;;4.60;51.00
76819;BME280;65772;51.096;17.006;2024-01-15T11:00:51;98053.86;;;4.61;50.70
76819;BME280;65772;51.096;17.006;2024-01-15T11:03:22;98052.34;;;4.61;50.87
76819;BME280;65772;51.096;17.006;2024-01-15T11:05:54;98049.98;;;4.61;50.99
76819;BME280;65772;51.096;17.006;2024-01-15T11:08:26;98059.70;;;4.67;51.32
76819;BME280;65772;51.096;17.006;2024-01-15T11:10:57;98054.93;;;4.74;50.90
76819;BME280;65772;51.096;17.006;2024-01-15T11:13:41;98043.39;;;4.84;50.89
76819;BME280;65772;51.096;17.006;2024-01-15T11:16:17;98055.41;;;4.96;50.81
76819;BME280;65772;51.096;17.006;2024-01-15T11:19:04;98047.75;;;5.04;50.27
76819;BME280;65772;51.096;17.006;2024-01-15T11:21:43;98053.38;;;5.07;50.08
76819;BME280;65772;51.096;17.006;2024-01-15T11:24:34;98046.80;;;5.09;49.78
76819;BME280;65772;51.096;17.006;2024-01-15T11:27:06;98062.86;;;5.10;49.75
76819;BME280;65772;51.096;17.006;2024-01-15T11:29:38;98053.22;;;5.07;49.81
76819;BME280;65772;51.096;17.006;2024-01-15T11:32:09;98052.24;;;5.11;50.20
76819;BME280;65772;51.096;17.006;2024-01-15T11:34:59;98062.14;;;5.17;49.78
76819;BME280;65772;51.096;17.006;2024-01-15T11:37:59;98039.80;;;5.16;49.60
76819;BME280;65772;51.096;17.006;2024-01-15T11:40:39;98047.66;;;5.23;50.19
76819;BME280;65772;51.096;17.006;2024-01-15T11:43:12;98059.54;;;5.26;49.47
76819;BME280;65772;51.096;17.006;2024-01-15T11:45:46;98048.69;;;5.24;49.61
76819;BME280;65772;51.096;17.006;2024-01-15T11:48:21;98049.69;;;5.23;49.30
76819;BME280;65772;51.096;17.006;2024-01-15T11:50:53;98046.31;;;5.24;49.61
76819;BME280;65772;51.096;17.006;2024-01-15T11:53:35;98043.30;;;5.26;49.26
76819;BME280;65772;51.096;17.006;2024-01-15T11:56:15;98043.02;;;5.30;49.84
76819;BME280;65772;51.096;17.006;2024-01-15T11:58:46;98050.62;;;5.30;49.38
76819;BME280;65772;51.096;17.006;2024-01-15T12:01:17;98045.73;;;5.30;49.36
76819;BME280;65772;51.096;17.006;2024-01-15T12:03:50;98046.91;;;5.30;49.41
76819;BME280;65772;51.096;17.006;2024-01-15T12:06:20;98057.20;;;5.27;49.10
76819;BME280;65772;51.096;17.006;2024-01-15T12:09:07;98049.66;;;5.20;49.27
76819;BME280;65772;51.096;17.006;2024-01-15T12:11:38;98043.54;;;5.17;49.68
76819;BME280;65772;51.096;17.006;2024-01-15T12:14:14;98047.05;;;5.14;49.49
76819;BME280;65772;51.096;17.006;2024-01-15T12:16:45;98043.09;;;5.10;49.74
76819;BME280;65772;51.096;17.006;2024-01-15T12:19:16;98043.21;;;5.05;49.60
76819;BME280;65772;51.096;17.006;2024-01-15T12:21:47;98043.68;;;5.03;49.92
76819;BME280;65772;51.096;17.006;2024-01-15T12:24:19;98053.66;;;5.04;49.98
76819;BME280;65772;51.096;17.006;2024-01-15T12:26:50;98052.63;;;5.02;49.89
76819;BME280;65772;51.096;17.006;2024-01-15T12:29:20;98048.39;;;5.02;49.92
76819;BME280;65772;51.096;17.006;2024-01-15T12:31:52;98055.97;;;5.00;49.86
76819;BME280;65772;51.096;17.006;2024-01-15T12:34:28;98056.96;;;4.99;49.56
76819;BME280;65772;51.096;17.006;2024-01-15T12:37:00;98056.27;;;4.96;49.73
76819;BME280;65772;51.096;17.006;2024-01-15T12:39:30;98059.49;;;4.97;49.74
76819;BME280;65772;51.096;17.006;2024-01-15T12:42:02;98052.35;;;4.94;49.48
76819;BME280;65772;51.096;17.006;2024-01-15T12:44:33;98043.73;;;4.94;49.73
76819;BME280;65772;51.096;17.006;2024-01-15T12:47:06;98046.41;;;4.93;49.54
76819;BME280;65772;51.096;17.006;2024-01-15T12:49:38;98049.12;;;4.93;49.57
76819;BME280;65772;51.096;17.006;2024-01-15T12:52:10;98045.02;;;4.91;49.65
76819;BME280;65772;51.096;17.006;2024-01-15T12:54:41;98039.13;;;4.92;50.14
76819;BME280;65772;51.096;17.006;2024-01-15T12:57:12;98039.48;;;4.94;49.86
76819;BME280;65772;51.096;17.006;2024-01-15T12:59:42;98032.55;;;4.93;49.68
76819;BME280;65772;51.096;17.006;2024-01-15T13:02:14;98035.45;;;4.95;50.19
76819;BME280;65772;51.096;17.006;2024-01-15T13:04:44;98050.30;;;4.94;49.70
76819;BME280;65772;51.096;17.006;2024-01-15T13:07:15;98048.55;;;4.90;49.50
76819;BME280;65772;51.096;17.006;2024-01-15T13:09:46;98043.11;;;4.88;49.74
76819;BME280;65772;51.096;17.006;2024-01-15T13:12:17;98047.81;;;4.85;49.51
76819;BME280;65772;51.096;17.006;2024-01-15T13:14:47;98043.70;;;4.81;49.84
76819;BME280;65772;51.096;17.006;2024-01-15T13:17:18;98037.39;;;4.78;49.96
76819;BME280;65772;51.096;17.006;2024-01-15T13:19:50;98043.80;;;4.76;49.66
76819;BME280;65772;51.096;17.006;2024-01-15T13:22:21;98044.13;;;4.77;50.09